Time;durP1;ratioP1;P1;durP2;ratioP2;P2;SDS_P1;SDS_P2;PMS_P1;PMS_P2;Temp;Humidity;BMP_temperature;BMP_pressure;BME280_temperature;BME280_humidity;BME280_pressure;Samples;Min_cycle;Max_cycle;Signal;HPM_P1;HPM_P2
2023/04/10 00:00:19;;;;;;;14.13;11.43;;;;;;;6.16;66.56;99973.31;5065391;28;20041;-72
2023/04/10 00:02:46;;;;;;;13.38;10.88;;;;;;;6.16;66.73;99978.56;5065492;28;20052;-70
2023/04/10 00:05:12;;;;;;;13.82;10.75;;;;;;;6.16;66.57;99973.31;5065287;28;20044;-70
2023/04/10 00:07:39;;;;;;;12.77;11.35;;;;;;;6.19;66.53;99975.84;5065598;28;20040;-70
2023/04/10 00:10:08;;;;;;;15.07;11.55;;;;;;;6.00;66.68;99950.03;5065602;28;20226;-70
2023/04/10 00:12:36;;;;;;;12.30;10.45;;;;;;;6.18;66.66;99971.50;5065523;28;20114;-69
2023/04/10 00:15:03;;;;;;;12.57;11.02;;;;;;;6.14;66.70;99975.97;5065589;28;20070;-70
2023/04/10 00:17:29;;;;;;;13.98;11.20;;;;;;;6.14;66.67;99973.34;5065484;28;20044;-70
2023/04/10 00:19:58;;;;;;;14.15;11.32;;;;;;;6.13;66.76;99973.38;5065226;28;20110;-70
2023/04/10 00:22:24;;;;;;;14.10;12.23;;;;;;;5.94;66.76;99933.56;5065666;28;20064;-70
2023/04/10 00:24:51;;;;;;;12.57;10.82;;;;;;;6.12;66.88;99969.88;5065450;28;20116;-70
2023/04/10 00:27:19;;;;;;;14.05;11.73;;;;;;;6.09;66.98;99968.22;5065159;28;20049;-70
2023/04/10 00:29:46;;;;;;;15.38;12.75;;;;;;;6.08;67.13;99962.97;5065238;28;20087;-70
2023/04/10 00:32:12;;;;;;;13.57;11.18;;;;;;;6.07;67.09;99972.66;5065116;28;20092;-70
2023/04/10 00:34:39;;;;;;;12.93;11.10;;;;;;;6.06;66.99;99964.78;5065612;28;20232;-70
2023/04/10 00:37:06;;;;;;;13.18;10.90;;;;;;;6.08;66.99;99963.84;5065694;28;20071;-70
2023/04/10 00:39:32;;;;;;;12.90;10.73;;;;;;;6.08;66.89;99963.84;5065391;28;20123;-70
2023/04/10 00:42:00;;;;;;;13.55;11.30;;;;;;;5.82;67.22;99916.34;5064944;28;20073;-70
2023/04/10 00:44:28;;;;;;;12.63;10.90;;;;;;;6.06;67.05;99960.41;5065245;28;20056;-70
2023/04/10 00:46:55;;;;;;;11.98;9.65;;;;;;;6.06;67.11;99964.78;5064944;28;20253;-70
2023/04/10 00:49:21;;;;;;;12.45;11.20;;;;;;;6.04;67.13;99967.47;5064967;28;20041;-70
2023/04/10 00:51:48;;;;;;;12.07;10.77;;;;;;;6.01;67.04;99958.78;5065569;28;20037;-71
2023/04/10 00:54:15;;;;;;;13.18;11.18;;;;;;;6.04;67.05;99958.72;5065984;28;20104;-70
2023/04/10 00:56:42;;;;;;;11.90;10.63;;;;;;;5.78;67.05;99909.44;5068734;28;20095;-71
2023/04/10 00:59:09;;;;;;;13.70;10.80;;;;;;;6.04;67.00;99956.06;5069228;28;20051;-71
2023/04/10 01:01:37;;;;;;;12.55;10.63;;;;;;;6.04;67.09;99962.19;5069306;28;20045;-72
2023/04/10 01:04:04;;;;;;;13.35;11.25;;;;;;;6.03;67.09;99964.88;5068824;28;20328;-72
2023/04/10 01:06:52;;;;;;;12.55;10.85;;;;;;;5.46;67.71;99852.44;5068685;28;20308;-72
2023/04/10 01:09:33;;;;;;;12.55;10.27;;;;;;;6.03;67.57;99956.97;5068784;28;20048;-72
2023/04/10 01:12:08;;;;;;;13.90;11.55;;;;;;;6.04;67.21;99962.19;5068493;28;20041;-71
2023/04/10 01:14:43;;;;;;;12.70;11.35;;;;;;;5.83;67.17;99920.69;5068586;28;20121;-70
2023/04/10 01:17:13;;;;;;;;;;;;;;;5.98;68.34;99962.38;5069443;28;20044;-70
2023/04/10 01:19:59;;;;;;;13.27;10.32;;;;;;;5.99;68.15;99963.22;5068584;28;20160;-68
2023/04/10 01:22:32;;;;;;;13.15;11.40;;;;;;;5.98;67.29;99958.88;5068256;28;20041;-70
2023/04/10 01:25:16;;;;;;;12.25;10.38;;;;;;;6.02;67.20;99956.13;5068844;28;20049;-71
2023/04/10 01:27:54;;;;;;;11.50;10.00;;;;;;;5.91;67.14;99938.91;5068781;28;20045;-72
2023/04/10 01:30:23;;;;;;;11.85;10.02;;;;;;;6.05;67.07;99958.66;5068449;28;20045;-72
2023/04/10 01:32:55;;;;;;;11.57;10.20;;;;;;;6.06;66.81;99964.78;5068402;28;20047;-70
2023/04/10 01:35:24;;;;;;;11.57;9.52;;;;;;;6.06;66.89;99965.66;5068030;28;20216;-72
2023/04/10 01:37:53;;;;;;;11.55;10.18;;;;;;;6.07;66.73;99966.53;5068586;28;20087;-70
2023/04/10 01:40:21;;;;;;;12.50;9.93;;;;;;;6.08;66.87;99960.34;5068523;28;20041;-71
2023/04/10 01:42:52;;;;;;;12.10;10.50;;;;;;;6.05;66.90;99963.94;5067776;28;20127;-72
2023/04/10 01:45:22;;;;;;;11.90;10.18;;;;;;;6.07;66.73;99961.25;5067894;28;20100;-69
2023/04/10 01:47:50;;;;;;;12.27;9.75;;;;;;;6.06;66.82;99960.41;5067857;28;20057;-69
2023/04/10 01:50:17;;;;;;;12.48;10.00;;;;;;;6.06;66.69;99951.63;5067818;28;20293;-69
2023/04/10 01:52:46;;;;;;;11.15;9.57;;;;;;;6.06;66.68;99951.63;5068323;28;20040;-69
2023/04/10 01:55:13;;;;;;;12.98;11.18;;;;;;;6.06;66.77;99957.75;5068578;28;20189;-70
2023/04/10 01:57:40;;;;;;;12.40;10.23;;;;;;;5.85;66.72;99918.00;5067927;28;20041;-67
2023/04/10 02:00:08;;;;;;;12.13;10.25;;;;;;;6.02;66.84;99952.63;5067946;28;20192;-69
2023/04/10 02:02:35;;;;;;;11.82;9.65;;;;;;;5.85;66.77;99924.13;5067632;28;20049;-68
2023/04/10 02:05:03;;;;;;;12.27;10.10;;;;;;;6.04;66.87;99956.06;5067597;28;20041;-68
2023/04/10 02:07:35;;;;;;;13.13;11.10;;;;;;;6.00;67.05;99962.31;5066753;28;20052;-68
2023/04/10 02:10:09;;;;;;;12.45;10.35;;;;;;;5.99;67.02;99960.59;5067763;28;20049;-68
2023/04/10 02:12:39;;;;;;;11.43;10.10;;;;;;;6.00;67.08;99965.81;5067462;28;20040;-69
2023/04/10 02:15:08;;;;;;;11.38;10.20;;;;;;;5.82;66.91;99923.34;5067407;28;20051;-69
2023/04/10 02:17:36;;;;;;;12.23;10.70;;;;;;;5.76;66.92;99922.63;5067256;28;20056;-68
2023/04/10 02:20:07;;;;;;;13.82;11.07;;;;;;;5.97;67.14;99954.50;5067663;28;20040;-69
2023/04/10 02:22:35;;;;;;;11.65;10.30;;;;;;;5.96;67.13;99951.03;5067153;28;20182;-69
2023/04/10 02:25:04;;;;;;;12.20;10.13;;;;;;;5.74;67.19;99920.94;5067145;28;20040;-68
2023/04/10 02:27:34;;;;;;;12.20;10.23;;;;;;;5.94;67.31;99944.06;5067258;28;20041;-69
2023/04/10 02:30:02;;;;;;;13.23;10.70;;;;;;;5.92;67.22;99953.78;5067585;28;20056;-69
2023/04/10 02:32:29;;;;;;;14.20;11.02;;;;;;;5.89;67.51;99946.84;5067250;28;20107;-69
2023/04/10 02:34:56;;;;;;;13.05;11.27;;;;;;;5.87;67.64;99946.00;5066822;28;20071;-69
2023/04/10 02:37:24;;;;;;;11.63;10.10;;;;;;;5.84;67.56;99940.81;5066915;28;20071;-69
2023/04/10 02:39:53;;;;;;;12.10;10.68;;;;;;;5.78;67.46;99938.34;5067101;28;20051;-68
2023/04/10 02:42:20;;;;;;;12.90;9.80;;;;;;;5.84;67.49;99945.22;5066701;28;20083;-68
2023/04/10 02:44:47;;;;;;;12.73;10.48;;;;;;;5.82;67.60;99942.63;5066961;28;20053;-68
2023/04/10 02:47:14;;;;;;;12.18;10.82;;;;;;;5.83;67.59;99948.75;5066947;28;20315;-68
2023/04/10 02:49:41;;;;;;;13.40;11.35;;;;;;;5.82;67.55;99944.41;5066896;28;20033;-68
2023/04/10 02:52:08;;;;;;;12.57;10.40;;;;;;;5.81;67.53;99943.53;5066840;28;20053;-68
2023/04/10 02:54:36;;;;;;;13.13;11.20;;;;;;;5.81;67.49;99946.16;5067008;28;20063;-69
2023/04/10 02:57:03;;;;;;;12.35;9.95;;;;;;;5.81;67.58;99940.03;5066512;28;20104;-69
2023/04/10 02:59:30;;;;;;;11.60;10.10;;;;;;;5.80;67.57;99940.94;5066457;28;20048;-68
2023/04/10 03:01:57;;;;;;;11.48;9.68;;;;;;;5.78;67.57;99959.41;5065575;28;20075;-69
2023/04/10 03:04:24;;;;;;;13.73;10.10;;;;;;;5.77;67.66;99941.91;5066219;28;20037;-70
2023/04/10 03:06:50;;;;;;;14.13;10.90;;;;;;;4.95;67.75;99833.59;5066799;28;20179;-71
2023/04/10 03:09:17;;;;;;;11.98;10.48;;;;;;;5.73;67.83;99949.00;5066603;28;20040;-71
2023/04/10 03:11:45;;;;;;;13.63;10.95;;;;;;;5.71;67.93;99949.94;5066471;28;20045;-71
2023/04/10 03:14:12;;;;;;;12.13;10.20;;;;;;;5.71;67.94;99942.06;5066735;28;20052;-71
2023/04/10 03:16:38;;;;;;;12.90;10.48;;;;;;;5.56;67.88;99918.78;5066659;28;20045;-71
2023/04/10 03:19:05;;;;;;;11.98;10.48;;;;;;;5.70;67.93;99935.94;5066232;28;20052;-72
2023/04/10 03:21:32;;;;;;;13.65;11.63;;;;;;;5.72;67.73;99933.25;5066536;28;20094;-70
2023/04/10 03:23:59;;;;;;;12.65;10.57;;;;;;;5.72;67.90;99931.50;5066246;28;20320;-70
2023/04/10 03:26:26;;;;;;;12.60;10.43;;;;;;;5.70;67.80;99933.31;5066207;28;20304;-70
2023/04/10 03:28:54;;;;;;;12.98;10.57;;;;;;;5.69;67.92;99938.59;5066220;28;20298;-69
2023/04/10 03:31:21;;;;;;;14.20;11.52;;;;;;;5.42;68.04;99898.97;5065632;28;20051;-69
2023/04/10 03:33:48;;;;;;;12.52;9.85;;;;;;;5.69;67.90;99935.97;5066316;28;20228;-69
2023/04/10 03:36:14;;;;;;;12.85;11.10;;;;;;;5.68;67.99;99942.13;5065785;28;20041;-69
2023/04/10 03:38:41;;;;;;;12.35;10.10;;;;;;;5.68;67.84;99940.38;5065978;28;20109;-69
2023/04/10 03:41:08;;;;;;;11.75;9.95;;;;;;;5.65;67.89;99942.22;5065724;28;20060;-69
2023/04/10 03:43:34;;;;;;;13.25;10.10;;;;;;;5.23;67.98;99875.81;5064560;28;20118;-69
2023/04/10 03:46:02;;;;;;;12.55;10.30;;;;;;;4.89;67.95;99824.13;5065881;28;20127;-69
2023/04/10 03:48:30;;;;;;;13.10;10.95;;;;;;;5.61;68.17;99938.81;5066147;28;20146;-70
2023/04/10 03:50:57;;;;;;;11.32;9.52;;;;;;;4.45;67.88;99736.75;5065972;28;20051;-70
2023/04/10 03:53:24;;;;;;;11.48;10.20;;;;;;;5.62;68.22;99944.91;5066327;28;20182;-69
2023/04/10 03:55:51;;;;;;;12.00;9.60;;;;;;;5.60;67.92;99941.47;5066046;28;20052;-70
2023/04/10 03:58:18;;;;;;;11.93;10.23;;;;;;;5.60;68.05;99941.47;5065905;28;20037;-70
2023/04/10 04:00:45;;;;;;;11.38;9.75;;;;;;;5.59;68.04;99943.22;5066319;28;20072;-70
2023/04/10 04:03:13;;;;;;;12.52;11.23;;;;;;;5.58;68.05;99946.75;5065450;28;20041;-70
2023/04/10 04:05:40;;;;;;;12.65;10.68;;;;;;;5.58;67.98;99943.28;5065903;28;20227;-70
2023/04/10 04:08:06;;;;;;;12.52;10.27;;;;;;;5.51;68.10;99939.94;5065666;28;20352;-70
2023/04/10 04:10:33;;;;;;;11.98;9.85;;;;;;;5.53;68.18;99948.66;5065611;28;20049;-70
2023/04/10 04:13:00;;;;;;;11.48;9.77;;;;;;;5.48;68.21;99949.66;5065385;28;20082;-70
2023/04/10 04:15:27;;;;;;;12.73;10.05;;;;;;;5.46;68.28;99957.59;5065615;28;20048;-70
2023/04/10 04:17:53;;;;;;;12.48;9.88;;;;;;;5.47;68.08;99958.44;5065595;28;20071;-69
2023/04/10 04:20:21;;;;;;;11.40;9.77;;;;;;;5.21;68.34;99925.78;5065780;28;20045;-70
2023/04/10 04:22:48;;;;;;;12.32;10.32;;;;;;;5.40;68.22;99965.63;5065450;28;20100;-70
2023/04/10 04:25:15;;;;;;;13.02;9.95;;;;;;;5.39;68.28;99963.91;5065704;28;20037;-70
2023/04/10 04:27:41;;;;;;;12.07;10.48;;;;;;;5.39;68.22;99962.13;5065776;28;20091;-70
2023/04/10 04:30:09;;;;;;;12.40;10.55;;;;;;;5.40;68.30;99955.97;5067652;28;20047;-70
2023/04/10 04:32:36;;;;;;;10.00;8.60;;;;;;;5.41;68.22;99956.84;5069483;28;20170;-69
2023/04/10 04:35:02;;;;;;;11.05;9.13;;;;;;;5.19;68.21;99932.84;5069468;28;20197;-70
2023/04/10 04:37:30;;;;;;;12.30;10.18;;;;;;;5.38;68.21;99964.81;5069226;28;20053;-69
2023/04/10 04:39:57;;;;;;;11.13;9.10;;;;;;;5.35;68.35;99964.88;5069664;28;20045;-70
2023/04/10 04:42:24;;;;;;;14.82;9.80;;;;;;;5.33;68.48;99964.91;5068909;28;20059;-70
2023/04/10 04:44:50;;;;;;;12.43;10.20;;;;;;;5.34;68.57;99971.91;5068659;28;20041;-68
2023/04/10 04:47:17;;;;;;;13.85;11.23;;;;;;;5.33;68.63;99961.41;5069283;28;20107;-70
2023/04/10 04:49:44;;;;;;;12.00;9.48;;;;;;;5.35;68.64;99978.03;5068923;28;20047;-69
2023/04/10 04:52:10;;;;;;;12.88;9.20;;;;;;;5.24;68.43;99961.66;5068820;28;20041;-70
2023/04/10 04:54:38;;;;;;;10.52;9.07;;;;;;;5.37;68.54;99973.59;5069148;28;20075;-70
2023/04/10 04:57:07;;;;;;;11.38;10.18;;;;;;;5.38;68.48;99978.81;5069085;28;20297;-70
2023/04/10 04:59:33;;;;;;;12.18;9.73;;;;;;;5.39;68.44;99980.53;5069008;28;20201;-70
2023/04/10 05:02:00;;;;;;;11.70;9.50;;;;;;;5.43;68.48;99978.69;5068980;28;20053;-70
2023/04/10 05:04:27;;;;;;;10.85;9.40;;;;;;;5.42;68.50;99983.09;5068757;28;20048;-70
2023/04/10 05:06:53;;;;;;;11.38;9.93;;;;;;;5.43;68.45;99978.69;5068912;28;20052;-71
2023/04/10 05:09:20;;;;;;;11.55;9.27;;;;;;;5.44;68.47;99980.44;5069067;28;20045;-70
2023/04/10 05:11:49;;;;;;;11.20;10.00;;;;;;;5.44;68.62;99977.78;5069079;28;20044;-70
2023/04/10 05:14:16;;;;;;;12.98;10.18;;;;;;;5.46;68.53;99976.00;5068726;28;20115;-70
2023/04/10 05:16:42;;;;;;;10.27;8.85;;;;;;;5.48;68.25;99986.47;5068433;28;20083;-70
2023/04/10 05:19:09;;;;;;;13.60;10.38;;;;;;;5.47;68.54;99971.59;5068678;28;20045;-70
2023/04/10 05:21:36;;;;;;;12.35;10.00;;;;;;;5.53;68.33;99992.47;5068687;28;20095;-70
2023/04/10 05:24:03;;;;;;;12.65;10.27;;;;;;;5.58;68.39;99990.59;5068510;28;20041;-70
2023/04/10 05:26:30;;;;;;;11.35;9.30;;;;;;;5.60;68.36;99991.44;5068338;28;20103;-70
2023/04/10 05:28:58;;;;;;;13.30;10.27;;;;;;;5.62;68.37;99995.75;5068467;28;20049;-70
2023/04/10 05:31:25;;;;;;;12.95;11.15;;;;;;;5.65;68.44;99989.56;5068408;28;20083;-70
2023/04/10 05:33:51;;;;;;;13.05;10.45;;;;;;;5.66;68.42;100000.03;5068653;28;20087;-70
2023/04/10 05:36:18;;;;;;;11.05;9.40;;;;;;;5.68;68.48;100000.00;5068583;28;20048;-70
2023/04/10 05:38:45;;;;;;;12.63;10.02;;;;;;;5.71;68.33;99999.91;5067951;28;20045;-70
2023/04/10 05:41:11;;;;;;;13.65;11.68;;;;;;;5.74;68.37;100005.97;5067197;28;20111;-69
2023/04/10 05:43:38;;;;;;;10.85;9.05;;;;;;;5.77;68.24;100000.63;5067677;28;20064;-70
2023/04/10 05:46:06;;;;;;;12.07;9.65;;;;;;;5.82;68.28;100000.50;5067760;28;20041;-70
2023/04/10 05:48:33;;;;;;;12.48;9.93;;;;;;;5.87;68.20;100000.38;5068137;28;20041;-70
2023/04/10 05:51:00;;;;;;;11.02;9.15;;;;;;;5.92;68.25;100004.63;5068363;28;20059;-70
2023/04/10 05:53:30;;;;;;;12.25;10.70;;;;;;;5.97;68.07;100004.50;5067708;28;20087;-70
2023/04/10 05:55:58;;;;;;;14.80;11.38;;;;;;;6.03;67.87;100006.97;5067879;28;20119;-70
2023/04/10 05:58:24;;;;;;;13.07;11.07;;;;;;;6.08;67.92;100010.34;5068180;28;20049;-70
2023/04/10 06:00:51;;;;;;;13.15;10.27;;;;;;;6.16;67.76;100015.41;5067615;28;20041;-70
2023/04/10 06:03:19;;;;;;;12.50;10.77;;;;;;;6.21;67.85;100008.25;5068098;28;20095;-70
2023/04/10 06:05:46;;;;;;;14.55;12.00;;;;;;;6.10;67.74;99985.72;5067403;28;20090;-70
2023/04/10 06:08:13;;;;;;;12.20;10.32;;;;;;;6.35;67.64;100014.00;5067849;28;20052;-70
2023/04/10 06:10:39;;;;;;;12.88;11.20;;;;;;;6.41;67.63;100004.16;5068285;28;20166;-70
2023/04/10 06:13:06;;;;;;;16.00;12.50;;;;;;;6.48;67.45;100011.91;5067803;28;20051;-71
2023/04/10 06:15:33;;;;;;;13.45;12.02;;;;;;;6.58;67.40;100008.09;5067843;28;20037;-71
2023/04/10 06:17:59;;;;;;;13.45;11.57;;;;;;;6.69;67.22;100008.66;5067272;28;20051;-71
2023/04/10 06:20:27;;;;;;;14.23;12.20;;;;;;;6.83;67.08;100005.66;5067466;28;20045;-71
2023/04/10 06:22:54;;;;;;;14.65;12.90;;;;;;;6.96;66.67;100013.13;5067093;28;20045;-71
2023/04/10 06:25:21;;;;;;;14.60;12.52;;;;;;;7.19;66.21;100014.22;5067335;28;20041;-71
2023/04/10 06:27:47;;;;;;;15.50;11.70;;;;;;;7.45;65.65;100006.38;5067049;28;20106;-70
2023/04/10 06:30:14;;;;;;;16.90;13.73;;;;;;;7.73;64.73;100006.34;5066941;28;20041;-71
2023/04/10 06:32:41;;;;;;;14.23;12.30;;;;;;;7.94;64.03;100012.69;5066905;28;20051;-70
2023/04/10 06:35:08;;;;;;;15.35;12.57;;;;;;;8.03;63.70;100012.38;5067125;28;20043;-70
2023/04/10 06:37:36;;;;;;;16.25;14.10;;;;;;;8.05;63.65;100010.53;5067390;28;20040;-71
2023/04/10 06:40:07;;;;;;;16.05;13.57;;;;;;;8.01;63.68;100019.47;5067229;28;20041;-71
2023/04/10 06:42:34;;;;;;;14.85;13.10;;;;;;;7.98;63.85;100019.56;5066556;28;20103;-71
2023/04/10 06:45:02;;;;;;;17.60;14.48;;;;;;;7.99;63.86;100021.31;5066580;28;20280;-71
2023/04/10 06:47:28;;;;;;;15.30;13.68;;;;;;;8.16;63.77;100021.59;5067247;28;20328;-71
2023/04/10 06:49:55;;;;;;;14.80;13.05;;;;;;;8.12;63.42;99988.28;5066575;28;20040;-71
2023/04/10 06:52:21;;;;;;;16.73;13.30;;;;;;;8.24;63.22;99997.56;5066511;28;20098;-71
2023/04/10 06:54:50;;;;;;;14.27;12.77;;;;;;;8.55;62.74;100021.94;5066803;28;20037;-71
2023/04/10 06:57:17;;;;;;;17.27;14.07;;;;;;;8.31;62.51;99980.56;5066791;28;20051;-70
2023/04/10 06:59:44;;;;;;;17.25;14.35;;;;;;;8.68;62.39;100003.88;5067023;28;20256;-71
2023/04/10 07:02:11;;;;;;;15.40;13.65;;;;;;;9.04;61.93;100032.47;5066504;28;20197;-71
2023/04/10 07:04:37;;;;;;;15.27;13.25;;;;;;;9.17;61.54;100039.00;5066497;28;20308;-71
2023/04/10 07:07:08;;;;;;;15.90;13.02;;;;;;;9.35;61.29;100021.59;5066248;28;20107;-71
2023/04/10 07:09:35;;;;;;;15.55;13.65;;;;;;;9.69;60.87;100019.34;5066559;28;20091;-71
2023/04/10 07:12:03;;;;;;;17.88;14.60;;;;;;;9.96;59.79;100025.28;5066365;28;20074;-71
2023/04/10 07:14:31;;;;;;;16.23;13.95;;;;;;;10.20;59.53;100018.09;5066081;28;20071;-71
2023/04/10 07:16:57;;;;;;;16.45;13.77;;;;;;;10.47;59.03;100019.53;5066098;28;20063;-71
2023/04/10 07:19:24;;;;;;;15.43;13.77;;;;;;;10.71;58.55;100025.53;5066068;28;20049;-71
2023/04/10 07:21:51;;;;;;;14.90;12.48;;;;;;;10.93;57.99;100012.19;5065963;28;20048;-70
2023/04/10 07:24:18;;;;;;;15.50;13.77;;;;;;;11.16;57.02;100019.06;5066433;28;20048;-70
2023/04/10 07:26:45;;;;;;;15.77;14.18;;;;;;;11.43;56.88;100015.09;5066386;28;20091;-70
2023/04/10 07:29:14;;;;;;;15.75;12.85;;;;;;;11.42;56.35;99985.97;5065871;28;20041;-70
2023/04/10 07:31:41;;;;;;;16.13;14.48;;;;;;;11.79;56.05;100006.28;5066051;28;20061;-71
2023/04/10 07:34:08;;;;;;;15.38;13.20;;;;;;;11.94;55.84;100008.16;5065649;28;20051;-71
2023/04/10 07:36:35;;;;;;;14.38;12.88;;;;;;;12.11;55.72;100010.00;5065669;28;20307;-71
2023/04/10 07:39:01;;;;;;;17.77;14.18;;;;;;;12.08;55.14;99981.78;5065987;28;20036;-71
2023/04/10 07:41:28;;;;;;;16.42;14.60;;;;;;;12.37;54.94;100008.69;5065570;28;20047;-70
2023/04/10 07:43:55;;;;;;;16.10;13.50;;;;;;;12.52;55.07;100013.19;5065964;28;20257;-70
2023/04/10 07:46:23;;;;;;;14.30;12.80;;;;;;;12.59;54.30;100008.41;5065832;28;20045;-71
2023/04/10 07:48:50;;;;;;;15.48;13.93;;;;;;;12.69;54.41;100009.63;5065900;28;20064;-71
2023/04/10 07:51:16;;;;;;;17.00;13.68;;;;;;;12.73;54.35;100006.72;5065681;28;20087;-71
2023/04/10 07:53:43;;;;;;;15.15;13.60;;;;;;;12.82;54.12;100010.69;5065730;28;20099;-71
2023/04/10 07:56:15;;;;;;;15.15;12.57;;;;;;;12.90;52.01;99995.19;5065299;28;20293;-71
2023/04/10 07:58:42;;;;;;;16.88;14.82;;;;;;;12.99;53.97;100002.66;5065960;28;20048;-71
2023/04/10 08:01:09;;;;;;;16.92;13.65;;;;;;;12.57;53.46;99887.97;5065979;28;20048;-70
2023/04/10 08:03:40;;;;;;;15.80;13.77;;;;;;;13.16;51.92;99962.66;5064900;28;20045;-71
2023/04/10 08:06:09;;;;;;;16.15;13.45;;;;;;;13.44;53.20;99987.75;5065283;28;20045;-71
2023/04/10 08:08:36;;;;;;;15.30;13.07;;;;;;;13.71;52.67;99993.31;5065328;28;20278;-70
2023/04/10 08:11:04;;;;;;;14.73;13.23;;;;;;;13.98;52.22;99986.38;5065572;28;20063;-71
2023/04/10 08:13:30;;;;;;;16.88;15.10;;;;;;;14.19;51.74;99986.91;5065560;28;20041;-70
2023/04/10 08:15:57;;;;;;;16.27;14.40;;;;;;;14.37;51.11;99999.13;5065515;28;20100;-71
2023/04/10 08:18:24;;;;;;;14.55;12.98;;;;;;;14.52;50.97;99988.47;5065692;28;20045;-70
2023/04/10 08:20:52;;;;;;;19.05;15.73;;;;;;;14.68;50.28;99989.28;5065307;28;20063;-71
2023/04/10 08:23:19;;;;;;;16.85;15.05;;;;;;;14.93;49.93;99993.97;5065111;28;20041;-69
2023/04/10 08:25:46;;;;;;;17.25;14.25;;;;;;;15.11;49.78;99992.78;5066189;28;20168;-70
2023/04/10 08:28:12;;;;;;;16.58;14.85;;;;;;;15.16;49.42;100001.38;5065184;28;20043;-71
2023/04/10 08:30:39;;;;;;;19.80;17.73;;;;;;;15.19;49.50;99993.16;5065786;28;20098;-71
2023/04/10 08:33:06;;;;;;;17.20;15.40;;;;;;;15.28;49.17;100005.06;5065111;28;20106;-71
2023/04/10 08:35:32;;;;;;;17.42;15.68;;;;;;;15.43;49.28;99993.38;5065707;28;20045;-71
2023/04/10 08:38:00;;;;;;;16.73;14.68;;;;;;;15.38;48.70;99984.81;5065147;28;20045;-71
2023/04/10 08:40:27;;;;;;;16.67;15.02;;;;;;;15.29;49.22;99986.28;5065302;28;20293;-71
2023/04/10 08:42:54;;;;;;;16.88;15.00;;;;;;;15.13;48.96;99968.66;5064723;28;20057;-72
2023/04/10 08:45:21;;;;;;;17.23;15.48;;;;;;;15.21;49.19;99990.38;5065043;28;20124;-70
2023/04/10 08:47:49;;;;;;;18.15;16.20;;;;;;;15.14;49.40;99999.75;5065271;28;20041;-71
2023/04/10 08:50:17;;;;;;;16.73;15.02;;;;;;;14.99;49.06;99988.22;5065154;28;20041;-71
2023/04/10 08:52:46;;;;;;;18.80;16.80;;;;;;;14.91;49.64;99991.38;5064949;28;20041;-71
2023/04/10 08:55:14;;;;;;;19.90;16.58;;;;;;;14.64;49.66;99932.59;5064884;28;20033;-71
2023/04/10 08:57:42;;;;;;;18.73;16.75;;;;;;;13.93;49.40;99819.72;5065031;28;20056;-71
2023/04/10 09:00:09;;;;;;;17.60;15.77;;;;;;;13.58;49.40;99752.63;5064771;28;20041;-70
2023/04/10 09:02:38;;;;;;;20.13;17.42;;;;;;;15.04;48.80;99984.31;5064972;28;20037;-71
2023/04/10 09:05:07;;;;;;;17.73;15.75;;;;;;;15.21;48.99;99971.69;5064907;28;20036;-71
2023/04/10 09:07:33;;;;;;;17.85;15.95;;;;;;;15.22;48.18;99944.91;5064718;28;20045;-71
2023/04/10 09:10:00;;;;;;;17.65;15.85;;;;;;;15.36;47.95;99965.38;5064999;28;20342;-71
2023/04/10 09:12:28;;;;;;;19.25;17.17;;;;;;;15.23;48.03;99961.78;5064992;28;20323;-71
2023/04/10 09:14:56;;;;;;;17.95;16.05;;;;;;;15.23;47.87;99969.78;5064764;28;20232;-71
2023/04/10 09:17:24;;;;;;;17.75;15.95;;;;;;;15.23;48.25;99959.97;5068271;28;20099;-71
2023/04/10 09:19:52;;;;;;;17.77;15.93;;;;;;;15.10;48.26;99950.19;5068002;28;20048;-71
2023/04/10 09:22:28;;;;;;;18.33;16.52;;;;;;;15.47;47.96;99962.84;5067344;28;20033;-71
2023/04/10 09:24:55;;;;;;;17.38;15.45;;;;;;;15.52;47.34;99938.50;5068102;28;20047;-71
2023/04/10 09:27:31;;;;;;;19.77;17.88;;;;;;;15.64;45.47;99935.03;5068036;28;20041;-71
2023/04/10 09:29:58;;;;;;;18.13;16.33;;;;;;;15.65;46.77;99910.91;5068048;28;20041;-71
2023/04/10 09:32:40;;;;;;;19.70;17.77;;;;;;;16.07;43.34;99943.69;5068281;28;20052;-71
2023/04/10 09:35:08;;;;;;;18.80;16.88;;;;;;;15.17;46.05;99775.28;5068137;28;20037;-71
2023/04/10 09:37:36;;;;;;;22.63;17.88;;;;;;;15.36;45.85;99800.66;5068112;28;20052;-71
2023/04/10 09:40:03;;;;;;;19.70;16.17;;;;;;;15.59;45.78;99831.13;5068409;28;20048;-71
2023/04/10 09:42:32;;;;;;;19.25;17.23;;;;;;;16.47;45.30;99932.91;5067613;28;20290;-71
2023/04/10 09:45:00;;;;;;;18.15;16.35;;;;;;;16.62;45.69;99930.00;5067755;28;20117;-71
2023/04/10 09:47:27;;;;;;;17.48;15.75;;;;;;;16.68;45.05;99932.28;5067560;28;20040;-71
2023/04/10 09:49:55;;;;;;;17.90;16.05;;;;;;;16.57;45.30;99896.50;5066808;28;20132;-71
2023/04/10 09:52:25;;;;;;;18.85;16.95;;;;;;;16.79;45.09;99920.78;5067983;28;20112;-71
2023/04/10 09:54:52;;;;;;;16.98;15.32;;;;;;;16.82;45.15;99914.38;5067640;28;20316;-71
2023/04/10 09:57:21;;;;;;;18.25;16.40;;;;;;;16.88;44.67;99901.41;5067272;28;20197;-71
2023/04/10 09:59:51;;;;;;;17.85;16.05;;;;;;;16.83;44.33;99911.56;5067271;28;20041;-72
2023/04/10 10:02:19;;;;;;;18.38;16.55;;;;;;;16.71;44.61;99868.78;5067284;28;20064;-71
2023/04/10 10:04:47;;;;;;;17.95;16.05;;;;;;;16.93;44.58;99899.25;5067303;28;20204;-71
2023/04/10 10:07:15;;;;;;;17.75;15.95;;;;;;;17.06;43.93;99901.88;5067308;28;20045;-70
2023/04/10 10:09:43;;;;;;;17.58;15.75;;;;;;;17.17;43.77;99893.91;5067343;28;20244;-71
2023/04/10 10:12:11;;;;;;;18.88;16.98;;;;;;;17.27;43.72;99900.31;5067263;28;20063;-71
2023/04/10 10:14:44;;;;;;;18.58;16.75;;;;;;;17.37;42.74;99886.25;5067188;28;20048;-71
2023/04/10 10:17:17;;;;;;;17.23;15.50;;;;;;;16.54;41.84;99750.41;5067397;28;20323;-71
2023/04/10 10:19:53;;;;;;;16.45;14.63;;;;;;;17.47;42.61;99874.72;5067409;28;20242;-71
2023/04/10 10:22:23;;;;;;;16.38;14.77;;;;;;;17.44;42.81;99872.28;5067083;28;20051;-71
2023/04/10 10:24:55;;;;;;;16.80;13.98;;;;;;;17.52;42.80;99863.66;5067197;28;20067;-71
2023/04/10 10:27:23;;;;;;;15.38;13.77;;;;;;;17.51;42.22;99870.84;5066741;28;20055;-71
2023/04/10 10:29:53;;;;;;;17.42;15.38;;;;;;;17.57;42.27;99869.53;5066971;28;20040;-71
2023/04/10 10:32:21;;;;;;;17.70;15.38;;;;;;;16.57;42.05;99712.72;5066927;28;20306;-71
2023/04/10 10:34:52;;;;;;;16.98;15.23;;;;;;;17.60;42.51;99862.09;5066895;28;20037;-72
2023/04/10 10:37:19;;;;;;;17.45;15.73;;;;;;;17.55;41.97;99863.41;5067178;28;20044;-71
2023/04/10 10:39:56;;;;;;;17.10;15.43;;;;;;;17.42;40.81;99858.13;5067141;28;20117;-71
2023/04/10 10:42:30;;;;;;;17.52;15.73;;;;;;;17.34;41.53;99851.66;5066311;28;20068;-71
2023/04/10 10:45:06;;;;;;;17.40;15.60;;;;;;;17.40;41.67;99854.72;5067016;28;20209;-71
2023/04/10 10:47:40;;;;;;;17.27;15.52;;;;;;;17.46;40.88;99854.25;5066843;28;20037;-75
2023/04/10 10:50:07;;;;;;;17.30;15.52;;;;;;;17.47;42.28;99850.59;5066467;28;20041;-71
2023/04/10 10:52:45;;;;;;;17.52;15.82;;;;;;;17.44;38.93;99815.16;5065452;28;20053;-71
2023/04/10 10:55:33;;;;;;;16.05;14.45;;;;;;;17.11;37.56;99754.25;5066724;28;20063;-71
2023/04/10 10:58:01;;;;;;;16.20;14.50;;;;;;;17.49;41.60;99818.34;5066569;28;20041;-72
2023/04/10 11:01:09;;;;;;;16.40;14.77;;;;;;;17.53;38.64;99820.66;5065472;28;20060;-71
2023/04/10 11:03:37;;;;;;;16.52;14.90;;;;;;;17.60;41.53;99824.56;5052390;28;20060;-71
2023/04/10 11:06:07;;;;;;;16.52;14.88;;;;;;;17.70;41.08;99819.41;5066473;28;20033;-71
2023/04/10 11:08:43;;;;;;;16.23;14.70;;;;;;;17.74;40.01;99817.34;5066263;28;20316;-71
2023/04/10 11:11:14;;;;;;;17.63;15.68;;;;;;;17.82;40.35;99820.28;5066074;28;20098;-71
2023/04/10 11:13:43;;;;;;;16.83;15.13;;;;;;;17.86;40.09;99813.69;5066425;28;20108;-72
2023/04/10 11:16:10;;;;;;;16.40;14.80;;;;;;;16.85;40.26;99643.78;5066108;28;20285;-71
2023/04/10 11:19:04;;;;;;;15.57;13.98;;;;;;;17.90;36.91;99801.75;5065895;28;20238;-71
2023/04/10 11:21:31;;;;;;;16.45;14.85;;;;;;;17.89;40.56;99805.41;5066179;28;20209;-71
2023/04/10 11:24:05;;;;;;;16.77;15.07;;;;;;;17.96;38.95;99801.28;5065833;28;20227;-71
2023/04/10 11:26:40;;;;;;;16.13;14.52;;;;;;;17.99;37.88;99800.19;5065994;28;20104;-71